sensor_id;sensor_type;location;lat;lon;timestamp;pressure;altitude;pressure_sealevel;temperature;humidity
50430;BME280;36359;41.556;-8.418;2023-07-24T00:00:58;100107.22;;;22.72;87.72
50430;BME280;36359;41.556;-8.418;2023-07-24T00:03:23;100107.03;;;22.55;91.96
50430;BME280;36359;41.556;-8.418;2023-07-24T00:05:49;100108.38;;;22.16;92.51
50430;BME280;36359;41.556;-8.418;2023-07-24T00:08:15;100104.56;;;22.17;89.03
50430;BME280;36359;41.556;-8.418;2023-07-24T00:10:40;100103.78;;;22.28;94.24
50430;BME280;36359;41.556;-8.418;2023-07-24T00:13:07;100111.69;;;22.25;92.26
50430;BME280;36359;41.556;-8.418;2023-07-24T00:15:32;100097.06;;;21.62;99.63
50430;BME280;36359;41.556;-8.418;2023-07-24T00:17:58;100110.84;;;22.24;92.97
50430;BME280;36359;41.556;-8.418;2023-07-24T00:20:24;100103.84;;;22.70;86.34
50430;BME280;36359;41.556;-8.418;2023-07-24T00:22:50;100109.75;;;23.04;83.36
50430;BME280;36359;41.556;-8.418;2023-07-24T00:25:16;100109.53;;;23.17;88.58
50430;BME280;36359;41.556;-8.418;2023-07-24T00:27:42;100101.34;;;23.22;84.30
50430;BME280;36359;41.556;-8.418;2023-07-24T00:30:08;100103.53;;;23.55;81.43
50430;BME280;36359;41.556;-8.418;2023-07-24T00:32:34;100100.06;;;23.60;85.17
50430;BME280;36359;41.556;-8.418;2023-07-24T00:35:01;100101.63;;;23.56;79.95
50430;BME280;36359;41.556;-8.418;2023-07-24T00:37:26;100096.69;;;23.58;83.62
50430;BME280;36359;41.556;-8.418;2023-07-24T00:39:52;100090.09;;;23.59;80.15
50430;BME280;36359;41.556;-8.418;2023-07-24T00:42:18;100080.06;;;23.82;78.19
50430;BME280;36359;41.556;-8.418;2023-07-24T00:44:47;100085.00;;;23.91;78.07
50430;BME280;36359;41.556;-8.418;2023-07-24T00:47:13;100083.28;;;24.02;77.19
50430;BME280;36359;41.556;-8.418;2023-07-24T00:49:38;100082.78;;;24.17;76.33
50430;BME280;36359;41.556;-8.418;2023-07-24T00:52:05;100080.19;;;23.87;79.69
50430;BME280;36359;41.556;-8.418;2023-07-24T00:54:32;100086.09;;;23.43;82.97
50430;BME280;36359;41.556;-8.418;2023-07-24T00:57:00;100085.34;;;23.12;84.81
50430;BME280;36359;41.556;-8.418;2023-07-24T00:59:26;100083.69;;;22.81;86.98
50430;BME280;36359;41.556;-8.418;2023-07-24T01:01:52;100074.97;;;22.66;89.15
50430;BME280;36359;41.556;-8.418;2023-07-24T01:04:18;100082.00;;;22.80;86.77
50430;BME280;36359;41.556;-8.418;2023-07-24T01:06:45;100077.31;;;22.81;89.26
50430;BME280;36359;41.556;-8.418;2023-07-24T01:09:10;100082.41;;;22.35;92.41
50430;BME280;36359;41.556;-8.418;2023-07-24T01:11:41;100072.38;;;22.04;94.49
50430;BME280;36359;41.556;-8.418;2023-07-24T01:14:36;100080.72;;;22.64;88.72
50430;BME280;36359;41.556;-8.418;2023-07-24T01:17:07;100078.75;;;22.41;92.26
50430;BME280;36359;41.556;-8.418;2023-07-24T01:19:47;100076.88;;;22.35;91.89
50430;BME280;36359;41.556;-8.418;2023-07-24T01:27:44;100073.69;;;23.46;81.14
50430;BME280;36359;41.556;-8.418;2023-07-24T01:30:11;100069.00;;;23.58;81.58
50430;BME280;36359;41.556;-8.418;2023-07-24T01:32:38;100072.59;;;23.47;82.49
50430;BME280;36359;41.556;-8.418;2023-07-24T01:35:04;100066.94;;;23.18;83.18
50430;BME280;36359;41.556;-8.418;2023-07-24T01:37:30;100071.88;;;23.28;85.31
50430;BME280;36359;41.556;-8.418;2023-07-24T01:39:57;100072.84;;;23.33;82.62
50430;BME280;36359;41.556;-8.418;2023-07-24T01:42:24;100073.69;;;23.22;82.88
50430;BME280;36359;41.556;-8.418;2023-07-24T01:44:54;100079.00;;;23.35;81.63
50430;BME280;36359;41.556;-8.418;2023-07-24T01:47:20;100067.91;;;23.12;85.17
50430;BME280;36359;41.556;-8.418;2023-07-24T01:49:48;100068.16;;;23.57;80.58
50430;BME280;36359;41.556;-8.418;2023-07-24T01:52:14;100060.31;;;23.19;84.38
50430;BME280;36359;41.556;-8.418;2023-07-24T01:54:39;100050.44;;;23.47;80.33
50430;BME280;36359;41.556;-8.418;2023-07-24T01:57:06;100058.38;;;23.67;80.50
50430;BME280;36359;41.556;-8.418;2023-07-24T01:59:32;100054.16;;;23.88;76.92
50430;BME280;36359;41.556;-8.418;2023-07-24T02:01:57;100054.66;;;23.61;81.63
50430;BME280;36359;41.556;-8.418;2023-07-24T02:04:23;100050.94;;;23.79;79.26
50430;BME280;36359;41.556;-8.418;2023-07-24T02:06:49;100044.78;;;23.65;80.84
50430;BME280;36359;41.556;-8.418;2023-07-24T02:09:18;100046.84;;;23.46;82.40
50430;BME280;36359;41.556;-8.418;2023-07-24T02:11:44;100051.06;;;23.72;78.12
50430;BME280;36359;41.556;-8.418;2023-07-24T02:14:12;100054.41;;;23.98;76.40
50430;BME280;36359;41.556;-8.418;2023-07-24T02:16:38;100048.94;;;24.03;76.48
50430;BME280;36359;41.556;-8.418;2023-07-24T02:19:04;100043.00;;;23.83;80.12
50430;BME280;36359;41.556;-8.418;2023-07-24T02:21:30;100042.47;;;23.97;76.58
50430;BME280;36359;41.556;-8.418;2023-07-24T02:23:56;100037.13;;;24.08;75.53
50430;BME280;36359;41.556;-8.418;2023-07-24T02:26:22;100039.03;;;24.19;75.59
50430;BME280;36359;41.556;-8.418;2023-07-24T02:28:47;100042.75;;;24.24;75.37
50430;BME280;36359;41.556;-8.418;2023-07-24T02:31:13;100038.25;;;23.95;77.81
50430;BME280;36359;41.556;-8.418;2023-07-24T02:33:39;100034.78;;;23.88;79.56
50430;BME280;36359;41.556;-8.418;2023-07-24T02:36:05;100032.78;;;23.48;80.63
50430;BME280;36359;41.556;-8.418;2023-07-24T02:38:33;100030.38;;;23.40;82.86
50430;BME280;36359;41.556;-8.418;2023-07-24T02:40:59;100040.00;;;23.25;82.66
50430;BME280;36359;41.556;-8.418;2023-07-24T02:43:25;100030.09;;;23.53;79.41
50430;BME280;36359;41.556;-8.418;2023-07-24T02:45:50;100029.50;;;23.63;78.50
50430;BME280;36359;41.556;-8.418;2023-07-24T02:48:16;100034.78;;;23.64;79.13
50430;BME280;36359;41.556;-8.418;2023-07-24T02:50:42;100035.13;;;23.68;78.45
50430;BME280;36359;41.556;-8.418;2023-07-24T02:53:08;100024.09;;;23.56;80.49
50430;BME280;36359;41.556;-8.418;2023-07-24T02:55:33;100016.25;;;23.53;79.46
50430;BME280;36359;41.556;-8.418;2023-07-24T02:57:59;100026.97;;;23.49;80.15
50430;BME280;36359;41.556;-8.418;2023-07-24T03:00:25;100015.41;;;23.64;78.07
50430;BME280;36359;41.556;-8.418;2023-07-24T03:02:52;100014.81;;;23.62;80.15
50430;BME280;36359;41.556;-8.418;2023-07-24T03:05:17;100018.09;;;23.12;84.13
50430;BME280;36359;41.556;-8.418;2023-07-24T03:07:43;100018.91;;;22.59;87.16
50430;BME280;36359;41.556;-8.418;2023-07-24T03:10:09;100021.09;;;22.57;86.67
50430;BME280;36359;41.556;-8.418;2023-07-24T03:12:35;100020.25;;;23.10;82.11
50430;BME280;36359;41.556;-8.418;2023-07-24T03:15:02;100025.44;;;22.76;86.27
50430;BME280;36359;41.556;-8.418;2023-07-24T03:17:27;100019.78;;;22.59;85.58
50430;BME280;36359;41.556;-8.418;2023-07-24T03:19:54;100018.03;;;22.47;87.31
50430;BME280;36359;41.556;-8.418;2023-07-24T03:22:20;100022.38;;;22.42;87.15
50430;BME280;36359;41.556;-8.418;2023-07-24T03:24:46;100022.16;;;22.98;82.65
50430;BME280;36359;41.556;-8.418;2023-07-24T03:27:12;100021.94;;;23.34;81.05
50430;BME280;36359;41.556;-8.418;2023-07-24T03:29:38;100026.69;;;22.80;85.88
50430;BME280;36359;41.556;-8.418;2023-07-24T03:32:07;100020.53;;;22.36;89.49
50430;BME280;36359;41.556;-8.418;2023-07-24T03:34:32;100028.91;;;22.60;86.64
50430;BME280;36359;41.556;-8.418;2023-07-24T03:36:58;100015.50;;;22.33;89.15
50430;BME280;36359;41.556;-8.418;2023-07-24T03:39:24;100016.41;;;22.09;90.71
50430;BME280;36359;41.556;-8.418;2023-07-24T03:41:51;100010.63;;;21.62;94.43
50430;BME280;36359;41.556;-8.418;2023-07-24T03:44:16;100013.91;;;21.08;98.35
50430;BME280;36359;41.556;-8.418;2023-07-24T03:46:42;100017.56;;;21.02;98.66
50430;BME280;36359;41.556;-8.418;2023-07-24T03:49:07;100023.41;;;20.94;100.00
50430;BME280;36359;41.556;-8.418;2023-07-24T03:51:33;100017.84;;;21.19;100.00
50430;BME280;36359;41.556;-8.418;2023-07-24T03:53:59;100026.81;;;21.40;98.24
50430;BME280;36359;41.556;-8.418;2023-07-24T03:56:24;100020.00;;;21.42;99.05
50430;BME280;36359;41.556;-8.418;2023-07-24T03:58:50;100019.63;;;21.57;97.66
50430;BME280;36359;41.556;-8.418;2023-07-24T04:01:16;100019.91;;;21.86;94.09
50430;BME280;36359;41.556;-8.418;2023-07-24T04:03:41;100015.31;;;21.80;93.93
50430;BME280;36359;41.556;-8.418;2023-07-24T04:06:07;100014.78;;;21.89;94.48
50430;BME280;36359;41.556;-8.418;2023-07-24T04:08:33;100026.28;;;21.49;98.67
50430;BME280;36359;41.556;-8.418;2023-07-24T04:10:58;100030.94;;;21.49;99.24
50430;BME280;36359;41.556;-8.418;2023-07-24T04:13:24;100034.25;;;21.39;99.60
50430;BME280;36359;41.556;-8.418;2023-07-24T04:15:50;100030.16;;;20.67;100.00
50430;BME280;36359;41.556;-8.418;2023-07-24T04:18:15;100022.50;;;20.37;100.00
50430;BME280;36359;41.556;-8.418;2023-07-24T04:20:41;100037.47;;;20.54;100.00
50430;BME280;36359;41.556;-8.418;2023-07-24T04:23:07;100032.59;;;20.11;100.00
50430;BME280;36359;41.556;-8.418;2023-07-24T04:25:32;100038.06;;;19.66;100.00
50430;BME280;36359;41.556;-8.418;2023-07-24T04:27:58;100046.25;;;19.93;100.00
50430;BME280;36359;41.556;-8.418;2023-07-24T04:30:24;100041.00;;;20.30;100.00
50430;BME280;36359;41.556;-8.418;2023-07-24T04:32:50;100045.16;;;19.94;100.00
50430;BME280;36359;41.556;-8.418;2023-07-24T04:35:16;100048.03;;;19.41;100.00
50430;BME280;36359;41.556;-8.418;2023-07-24T04:37:42;100050.88;;;20.37;100.00
50430;BME280;36359;41.556;-8.418;2023-07-24T04:40:08;100053.31;;;20.66;97.74
50430;BME280;36359;41.556;-8.418;2023-07-24T04:42:34;100053.38;;;20.52;98.53
50430;BME280;36359;41.556;-8.418;2023-07-24T04:44:59;100052.84;;;21.00;93.91
50430;BME280;36359;41.556;-8.418;2023-07-24T04:47:25;100049.19;;;20.75;92.12
50430;BME280;36359;41.556;-8.418;2023-07-24T04:49:50;100050.53;;;20.66;95.74
50430;BME280;36359;41.556;-8.418;2023-07-24T04:52:16;100049.13;;;20.56;93.23
50430;BME280;36359;41.556;-8.418;2023-07-24T04:54:42;100052.75;;;20.82;93.23
50430;BME280;36359;41.556;-8.418;2023-07-24T04:57:07;100047.81;;;21.16;92.00
50430;BME280;36359;41.556;-8.418;2023-07-24T04:59:33;100047.13;;;20.95;93.90
50430;BME280;36359;41.556;-8.418;2023-07-24T05:01:59;100046.78;;;20.85;90.93
50430;BME280;36359;41.556;-8.418;2023-07-24T05:04:24;100045.56;;;20.81;91.56
50430;BME280;36359;41.556;-8.418;2023-07-24T05:06:50;100052.09;;;20.86;89.96
50430;BME280;36359;41.556;-8.418;2023-07-24T05:09:16;100049.63;;;21.03;91.16
50430;BME280;36359;41.556;-8.418;2023-07-24T05:11:42;100045.47;;;20.94;89.27
50430;BME280;36359;41.556;-8.418;2023-07-24T05:14:10;100051.97;;;21.00;88.22
50430;BME280;36359;41.556;-8.418;2023-07-24T05:16:36;100055.91;;;21.10;87.54
50430;BME280;36359;41.556;-8.418;2023-07-24T05:19:01;100057.91;;;21.03;89.77
50430;BME280;36359;41.556;-8.418;2023-07-24T05:21:27;100046.63;;;21.30;88.70
50430;BME280;36359;41.556;-8.418;2023-07-24T05:23:53;100036.97;;;21.83;86.58
50430;BME280;36359;41.556;-8.418;2023-07-24T05:26:18;100042.53;;;22.13;85.69
50430;BME280;36359;41.556;-8.418;2023-07-24T05:28:44;100045.63;;;22.35;83.48
50430;BME280;36359;41.556;-8.418;2023-07-24T05:31:10;100042.16;;;22.70;82.68
50430;BME280;36359;41.556;-8.418;2023-07-24T05:33:35;100049.72;;;23.04;80.57
50430;BME280;36359;41.556;-8.418;2023-07-24T05:36:02;100039.63;;;23.22;79.35
50430;BME280;36359;41.556;-8.418;2023-07-24T05:38:29;100041.09;;;22.82;78.77
50430;BME280;36359;41.556;-8.418;2023-07-24T05:40:59;100049.47;;;22.64;81.55
50430;BME280;36359;41.556;-8.418;2023-07-24T05:43:26;100056.09;;;23.05;79.76
50430;BME280;36359;41.556;-8.418;2023-07-24T05:45:53;100055.13;;;23.11;79.40
50430;BME280;36359;41.556;-8.418;2023-07-24T05:48:19;100053.47;;;23.33;78.10
50430;BME280;36359;41.556;-8.418;2023-07-24T05:50:45;100058.53;;;23.37;76.80
50430;BME280;36359;41.556;-8.418;2023-07-24T05:53:11;100057.47;;;22.84;77.46
50430;BME280;36359;41.556;-8.418;2023-07-24T05:55:37;100065.00;;;22.35;79.79
50430;BME280;36359;41.556;-8.418;2023-07-24T05:58:02;100055.28;;;22.44;81.40
50430;BME280;36359;41.556;-8.418;2023-07-24T06:00:28;100067.22;;;22.26;81.65
50430;BME280;36359;41.556;-8.418;2023-07-24T06:02:54;100073.06;;;22.36;81.06
50430;BME280;36359;41.556;-8.418;2023-07-24T06:05:20;100076.78;;;22.72;79.96
50430;BME280;36359;41.556;-8.418;2023-07-24T06:07:49;100073.63;;;22.57;79.64
50430;BME280;36359;41.556;-8.418;2023-07-24T06:10:14;100077.97;;;22.34;81.27
50430;BME280;36359;41.556;-8.418;2023-07-24T06:12:40;100081.97;;;22.38;81.38
50430;BME280;36359;41.556;-8.418;2023-07-24T06:15:06;100078.75;;;21.86;83.32
50430;BME280;36359;41.556;-8.418;2023-07-24T06:17:32;100087.44;;;22.57;81.08
50430;BME280;36359;41.556;-8.418;2023-07-24T06:19:58;100090.25;;;22.99;78.91
50430;BME280;36359;41.556;-8.418;2023-07-24T06:22:24;100089.03;;;22.95;76.33
50430;BME280;36359;41.556;-8.418;2023-07-24T06:24:50;100088.66;;;22.61;79.62
50430;BME280;36359;41.556;-8.418;2023-07-24T06:27:16;100083.50;;;22.95;77.30
50430;BME280;36359;41.556;-8.418;2023-07-24T06:29:41;100086.69;;;22.80;79.09
50430;BME280;36359;41.556;-8.418;2023-07-24T06:32:07;100086.16;;;23.01;78.11
50430;BME280;36359;41.556;-8.418;2023-07-24T06:34:34;100086.09;;;22.89;77.32
50430;BME280;36359;41.556;-8.418;2023-07-24T06:37:00;100091.75;;;22.83;78.78
50430;BME280;36359;41.556;-8.418;2023-07-24T06:39:25;100086.56;;;22.26;80.95
50430;BME280;36359;41.556;-8.418;2023-07-24T06:41:52;100102.22;;;21.95;82.71
50430;BME280;36359;41.556;-8.418;2023-07-24T06:44:18;100097.00;;;21.69;83.39
50430;BME280;36359;41.556;-8.418;2023-07-24T06:46:44;100097.16;;;22.29;81.97
50430;BME280;36359;41.556;-8.418;2023-07-24T06:49:09;100096.34;;;22.59;79.62
50430;BME280;36359;41.556;-8.418;2023-07-24T06:51:36;100100.28;;;22.21;81.03
50430;BME280;36359;41.556;-8.418;2023-07-24T06:54:04;100102.94;;;22.09;81.59
50430;BME280;36359;41.556;-8.418;2023-07-24T06:56:30;100103.53;;;22.11;80.43
50430;BME280;36359;41.556;-8.418;2023-07-24T06:58:56;100115.41;;;21.57;82.73
50430;BME280;36359;41.556;-8.418;2023-07-24T07:01:21;100110.94;;;21.30;82.57
50430;BME280;36359;41.556;-8.418;2023-07-24T07:03:47;100112.19;;;21.96;81.61
50430;BME280;36359;41.556;-8.418;2023-07-24T07:06:13;100115.06;;;21.15;81.98
50430;BME280;36359;41.556;-8.418;2023-07-24T07:08:38;100115.00;;;20.96;84.31
50430;BME280;36359;41.556;-8.418;2023-07-24T07:11:04;100122.13;;;21.10;83.22
50430;BME280;36359;41.556;-8.418;2023-07-24T07:13:30;100127.88;;;21.34;81.94
50430;BME280;36359;41.556;-8.418;2023-07-24T07:15:56;100130.00;;;21.39;81.56
50430;BME280;36359;41.556;-8.418;2023-07-24T07:18:22;100127.84;;;21.84;81.52
50430;BME280;36359;41.556;-8.418;2023-07-24T07:20:48;100127.75;;;21.22;82.69
50430;BME280;36359;41.556;-8.418;2023-07-24T07:23:14;100136.44;;;20.62;85.21
50430;BME280;36359;41.556;-8.418;2023-07-24T07:25:41;100136.69;;;20.54;85.67
50430;BME280;36359;41.556;-8.418;2023-07-24T07:28:09;100139.63;;;20.98;87.74
50430;BME280;36359;41.556;-8.418;2023-07-24T07:30:35;100147.63;;;21.31;84.15
50430;BME280;36359;41.556;-8.418;2023-07-24T07:33:00;100148.56;;;21.50;84.08
50430;BME280;36359;41.556;-8.418;2023-07-24T07:35:26;100156.13;;;21.04;83.69
50430;BME280;36359;41.556;-8.418;2023-07-24T07:37:52;100152.69;;;21.09;84.84
50430;BME280;36359;41.556;-8.418;2023-07-24T07:40:18;100158.78;;;20.86;81.85
50430;BME280;36359;41.556;-8.418;2023-07-24T07:42:43;100164.25;;;20.48;82.90
50430;BME280;36359;41.556;-8.418;2023-07-24T07:45:10;100156.38;;;20.51;83.48
50430;BME280;36359;41.556;-8.418;2023-07-24T07:47:36;100162.75;;;20.52;83.77
50430;BME280;36359;41.556;-8.418;2023-07-24T07:50:03;100171.00;;;20.52;83.75
50430;BME280;36359;41.556;-8.418;2023-07-24T07:52:28;100175.44;;;20.66;85.57
50430;BME280;36359;41.556;-8.418;2023-07-24T07:54:54;100173.31;;;20.61;84.16
50430;BME280;36359;41.556;-8.418;2023-07-24T07:57:20;100179.13;;;20.85;83.99
50430;BME280;36359;41.556;-8.418;2023-07-24T07:59:46;100174.28;;;21.50;80.43
50430;BME280;36359;41.556;-8.418;2023-07-24T08:02:11;100183.06;;;21.34;79.28
50430;BME280;36359;41.556;-8.418;2023-07-24T08:04:37;100184.16;;;21.58;80.33
50430;BME280;36359;41.556;-8.418;2023-07-24T08:07:03;100182.75;;;21.49;78.55
50430;BME280;36359;41.556;-8.418;2023-07-24T08:09:29;100182.09;;;21.53;78.04
50430;BME280;36359;41.556;-8.418;2023-07-24T08:11:55;100193.84;;;21.67;79.56
50430;BME280;36359;41.556;-8.418;2023-07-24T08:14:20;100188.97;;;21.69;77.09
50430;BME280;36359;41.556;-8.418;2023-07-24T08:16:49;100194.25;;;21.46;75.70
50430;BME280;36359;41.556;-8.418;2023-07-24T08:19:15;100198.81;;;21.84;77.04
50430;BME280;36359;41.556;-8.418;2023-07-24T08:21:41;100195.16;;;21.65;75.15
50430;BME280;36359;41.556;-8.418;2023-07-24T08:24:07;100196.16;;;21.95;76.94
50430;BME280;36359;41.556;-8.418;2023-07-24T08:26:32;100199.44;;;22.48;73.30
50430;BME280;36359;41.556;-8.418;2023-07-24T08:28:58;100203.44;;;21.90;73.65
50430;BME280;36359;41.556;-8.418;2023-07-24T08:31:24;100202.03;;;21.81;73.86
50430;BME280;36359;41.556;-8.418;2023-07-24T08:33:49;100201.25;;;22.35;73.64
50430;BME280;36359;41.556;-8.418;2023-07-24T08:36:15;100196.75;;;22.59;70.41
50430;BME280;36359;41.556;-8.418;2023-07-24T08:38:41;100200.38;;;22.41;68.95
50430;BME280;36359;41.556;-8.418;2023-07-24T08:41:10;100198.16;;;22.07;70.33
50430;BME280;36359;41.556;-8.418;2023-07-24T08:43:37;100203.41;;;22.15;72.05
50430;BME280;36359;41.556;-8.418;2023-07-24T08:46:04;100203.59;;;22.38;70.71
50430;BME280;36359;41.556;-8.418;2023-07-24T08:48:32;100199.56;;;22.53;72.26
50430;BME280;36359;41.556;-8.418;2023-07-24T08:51:12;100201.41;;;22.77;68.64
50430;BME280;36359;41.556;-8.418;2023-07-24T08:53:42;100205.97;;;23.02;70.57
50430;BME280;36359;41.556;-8.418;2023-07-24T08:56:09;100198.50;;;23.32;67.43
50430;BME280;36359;41.556;-8.418;2023-07-24T08:58:35;100194.41;;;22.75;65.76
50430;BME280;36359;41.556;-8.418;2023-07-24T09:01:03;100193.75;;;22.24;67.22
50430;BME280;36359;41.556;-8.418;2023-07-24T09:03:30;100200.56;;;21.78;68.82
50430;BME280;36359;41.556;-8.418;2023-07-24T09:05:56;100193.81;;;22.17;72.40
50430;BME280;36359;41.556;-8.418;2023-07-24T09:08:42;100202.41;;;22.46;71.41
50430;BME280;36359;41.556;-8.418;2023-07-24T09:11:09;100198.75;;;22.34;67.12
50430;BME280;36359;41.556;-8.418;2023-07-24T09:13:36;100202.38;;;21.66;69.66
50430;BME280;36359;41.556;-8.418;2023-07-24T09:16:03;100202.75;;;21.94;69.94
50430;BME280;36359;41.556;-8.418;2023-07-24T09:18:42;100206.28;;;22.45;71.79
50430;BME280;36359;41.556;-8.418;2023-07-24T09:21:09;100196.53;;;22.24;68.78
50430;BME280;36359;41.556;-8.418;2023-07-24T09:23:37;100198.78;;;22.64;69.92
50430;BME280;36359;41.556;-8.418;2023-07-24T09:26:09;100203.00;;;23.03;69.78
50430;BME280;36359;41.556;-8.418;2023-07-24T09:28:35;100205.94;;;22.72;68.32
50430;BME280;36359;41.556;-8.418;2023-07-24T09:31:02;100204.34;;;21.84;67.91
50430;BME280;36359;41.556;-8.418;2023-07-24T09:33:37;100203.72;;;22.25;66.31
50430;BME280;36359;41.556;-8.418;2023-07-24T09:36:05;100207.81;;;21.97;66.58
50430;BME280;36359;41.556;-8.418;2023-07-24T09:38:32;100208.28;;;21.69;67.69
50430;BME280;36359;41.556;-8.418;2023-07-24T09:41:01;100211.44;;;21.73;67.64
50430;BME280;36359;41.556;-8.418;2023-07-24T09:43:28;100213.69;;;21.58;68.01
50430;BME280;36359;41.556;-8.418;2023-07-24T09:45:55;100206.75;;;21.48;67.12
50430;BME280;36359;41.556;-8.418;2023-07-24T09:48:22;100206.72;;;21.80;65.39
50430;BME280;36359;41.556;-8.418;2023-07-24T09:50:55;100218.63;;;22.24;65.07
50430;BME280;36359;41.556;-8.418;2023-07-24T09:55:59;100221.38;;;22.61;61.72
50430;BME280;36359;41.556;-8.418;2023-07-24T09:58:25;100212.66;;;23.12;59.08
50430;BME280;36359;41.556;-8.418;2023-07-24T10:00:53;100213.66;;;23.00;58.70
50430;BME280;36359;41.556;-8.418;2023-07-24T10:03:19;100217.59;;;23.22;59.57
50430;BME280;36359;41.556;-8.418;2023-07-24T10:05:47;100215.44;;;23.24;61.80
50430;BME280;36359;41.556;-8.418;2023-07-24T10:08:18;100222.09;;;22.56;61.82
50430;BME280;36359;41.556;-8.418;2023-07-24T10:10:44;100217.22;;;22.15;62.51
50430;BME280;36359;41.556;-8.418;2023-07-24T10:13:11;100225.00;;;22.25;63.14
50430;BME280;36359;41.556;-8.418;2023-07-24T10:15:42;100237.44;;;22.34;63.68
50430;BME280;36359;41.556;-8.418;2023-07-24T10:18:09;100232.34;;;21.87;62.56
50430;BME280;36359;41.556;-8.418;2023-07-24T10:20:36;100232.69;;;21.97;63.32
50430;BME280;36359;41.556;-8.418;2023-07-24T10:23:03;100240.50;;;22.26;61.84
50430;BME280;36359;41.556;-8.418;2023-07-24T10:25:30;100232.44;;;22.61;62.80
50430;BME280;36359;41.556;-8.418;2023-07-24T10:28:17;100229.38;;;22.69;61.16
50430;BME280;36359;41.556;-8.418;2023-07-24T10:30:44;100228.50;;;23.35;58.94
50430;BME280;36359;41.556;-8.418;2023-07-24T10:33:11;100225.13;;;23.03;57.40
50430;BME280;36359;41.556;-8.418;2023-07-24T10:38:07;100234.06;;;22.68;56.59
50430;BME280;36359;41.556;-8.418;2023-07-24T10:40:33;100235.84;;;22.44;56.28
50430;BME280;36359;41.556;-8.418;2023-07-24T10:43:11;100244.13;;;22.44;60.14
50430;BME280;36359;41.556;-8.418;2023-07-24T10:45:58;100242.34;;;22.32;58.34
50430;BME280;36359;41.556;-8.418;2023-07-24T10:48:25;100239.91;;;22.42;56.14
50430;BME280;36359;41.556;-8.418;2023-07-24T10:50:51;100240.13;;;22.22;53.41
50430;BME280;36359;41.556;-8.418;2023-07-24T10:53:19;100244.34;;;22.25;51.95
50430;BME280;36359;41.556;-8.418;2023-07-24T10:55:46;100239.06;;;22.60;51.69
50430;BME280;36359;41.556;-8.418;2023-07-24T10:58:13;100234.72;;;22.82;49.95
50430;BME280;36359;41.556;-8.418;2023-07-24T11:00:40;100232.75;;;23.20;52.57
50430;BME280;36359;41.556;-8.418;2023-07-24T11:03:10;100237.28;;;23.32;50.10
50430;BME280;36359;41.556;-8.418;2023-07-24T11:05:43;100226.69;;;23.11;51.95
50430;BME280;36359;41.556;-8.418;2023-07-24T11:08:14;100234.72;;;23.31;47.57
50430;BME280;36359;41.556;-8.418;2023-07-24T11:10:54;100228.59;;;23.41;46.26
50430;BME280;36359;41.556;-8.418;2023-07-24T11:13:22;100224.34;;;23.68;45.70
50430;BME280;36359;41.556;-8.418;2023-07-24T11:15:49;100233.34;;;23.64;48.35
50430;BME280;36359;41.556;-8.418;2023-07-24T11:18:16;100231.06;;;23.61;47.54
50430;BME280;36359;41.556;-8.418;2023-07-24T11:20:49;100227.59;;;23.65;48.38
50430;BME280;36359;41.556;-8.418;2023-07-24T11:23:15;100230.34;;;23.65;50.53
50430;BME280;36359;41.556;-8.418;2023-07-24T11:25:41;100225.22;;;23.80;51.88
50430;BME280;36359;41.556;-8.418;2023-07-24T11:28:10;100237.03;;;23.88;50.58
50430;BME280;36359;41.556;-8.418;2023-07-24T11:30:36;100231.38;;;23.83;50.42
50430;BME280;36359;41.556;-8.418;2023-07-24T11:33:03;100235.84;;;23.11;52.47
50430;BME280;36359;41.556;-8.418;2023-07-24T11:35:30;100233.66;;;23.44;52.25
50430;BME280;36359;41.556;-8.418;2023-07-24T11:37:56;100245.19;;;23.29;53.36
50430;BME280;36359;41.556;-8.418;2023-07-24T11:43:02;100244.63;;;23.39;53.39
50430;BME280;36359;41.556;-8.418;2023-07-24T11:45:29;100252.44;;;23.11;54.50
50430;BME280;36359;41.556;-8.418;2023-07-24T11:47:55;100253.09;;;22.40;56.98
50430;BME280;36359;41.556;-8.418;2023-07-24T11:50:22;100236.44;;;22.83;56.28
50430;BME280;36359;41.556;-8.418;2023-07-24T11:52:51;100247.72;;;22.63;57.04
50430;BME280;36359;41.556;-8.418;2023-07-24T11:55:19;100245.72;;;22.71;56.25
50430;BME280;36359;41.556;-8.418;2023-07-24T11:57:58;100244.00;;;22.88;55.86
50430;BME280;36359;41.556;-8.418;2023-07-24T12:00:24;100244.00;;;23.37;55.46
50430;BME280;36359;41.556;-8.418;2023-07-24T12:02:50;100238.94;;;22.85;55.03
50430;BME280;36359;41.556;-8.418;2023-07-24T12:05:16;100251.47;;;23.36;54.79
50430;BME280;36359;41.556;-8.418;2023-07-24T12:07:43;100253.91;;;23.44;53.44
50430;BME280;36359;41.556;-8.418;2023-07-24T12:10:12;100243.88;;;23.01;55.02
50430;BME280;36359;41.556;-8.418;2023-07-24T12:12:46;100247.59;;;22.95;55.35
50430;BME280;36359;41.556;-8.418;2023-07-24T12:15:13;100248.19;;;23.27;53.58
50430;BME280;36359;41.556;-8.418;2023-07-24T12:17:40;100235.72;;;24.02;54.01
50430;BME280;36359;41.556;-8.418;2023-07-24T12:20:07;100244.00;;;24.61;50.58
50430;BME280;36359;41.556;-8.418;2023-07-24T12:22:35;100252.94;;;24.39;49.35
50430;BME280;36359;41.556;-8.418;2023-07-24T12:25:02;100248.41;;;24.74;47.72
50430;BME280;36359;41.556;-8.418;2023-07-24T12:27:28;100233.88;;;24.66;51.47
50430;BME280;36359;41.556;-8.418;2023-07-24T12:29:54;100238.44;;;24.73;49.47
50430;BME280;36359;41.556;-8.418;2023-07-24T12:32:20;100236.19;;;24.11;50.05
50430;BME280;36359;41.556;-8.418;2023-07-24T12:34:49;100234.75;;;23.96;51.36
50430;BME280;36359;41.556;-8.418;2023-07-24T12:37:15;100235.56;;;23.97;50.76
50430;BME280;36359;41.556;-8.418;2023-07-24T12:39:41;100224.13;;;24.17;51.01
50430;BME280;36359;41.556;-8.418;2023-07-24T12:42:06;100241.03;;;24.03;49.64
50430;BME280;36359;41.556;-8.418;2023-07-24T12:44:32;100220.66;;;23.98;50.43
50430;BME280;36359;41.556;-8.418;2023-07-24T12:46:58;100239.44;;;24.08;50.27
50430;BME280;36359;41.556;-8.418;2023-07-24T12:49:24;100219.88;;;24.38;50.19
50430;BME280;36359;41.556;-8.418;2023-07-24T12:51:50;100229.91;;;24.62;50.94